createdAt,value
2023-02-05T00:02:19.300Z,101144.38
2023-02-05T00:04:47.237Z,101149.98
2023-02-05T00:07:15.127Z,101150.08
2023-02-05T00:09:42.964Z,101144.80
2023-02-05T00:12:10.825Z,101139.68
2023-02-05T00:14:38.658Z,101138.38
2023-02-05T00:17:06.508Z,101141.70
2023-02-05T00:19:34.450Z,101141.02
2023-02-05T00:22:02.300Z,101133.08
2023-02-05T00:24:30.090Z,101135.66
2023-02-05T00:26:57.958Z,101135.78
2023-02-05T00:29:25.865Z,101124.21
2023-02-05T00:31:53.787Z,101128.99
2023-02-05T00:34:21.807Z,101131.23
2023-02-05T00:36:49.630Z,101124.55
2023-02-05T00:39:18.999Z,101130.36
2023-02-05T00:41:48.234Z,101127.36
2023-02-05T00:44:16.129Z,101129.45
2023-02-05T00:46:44.766Z,101128.33
2023-02-05T00:49:13.235Z,101119.83
2023-02-05T00:51:41.021Z,101120.43
2023-02-05T00:54:09.200Z,101128.24
2023-02-05T00:56:37.127Z,101126.58
2023-02-05T00:59:05.642Z,101125.80
2023-02-05T01:01:33.530Z,101126.85
2023-02-05T01:04:01.439Z,101128.63
2023-02-05T01:06:29.287Z,101128.70
2023-02-05T01:08:57.214Z,101130.86
2023-02-05T01:11:25.233Z,101130.76
2023-02-05T01:13:53.059Z,101126.02
2023-02-05T01:16:20.917Z,101133.48
2023-02-05T01:18:48.768Z,101129.02
2023-02-05T01:21:16.766Z,101123.94
2023-02-05T01:23:44.684Z,101117.58
2023-02-05T01:26:12.574Z,101123.89
2023-02-05T01:28:40.370Z,101130.05
2023-02-05T01:31:08.719Z,101131.23
2023-02-05T01:33:36.599Z,101139.83
2023-02-05T01:36:04.696Z,101141.92
2023-02-05T01:38:32.813Z,101144.51
2023-02-05T01:41:00.752Z,101136.15
2023-02-05T01:43:28.600Z,101133.91
2023-02-05T01:46:20.683Z,101126.59
2023-02-05T01:48:52.956Z,101127.94
2023-02-05T01:51:22.035Z,101121.36
2023-02-05T01:53:50.443Z,101127.52
2023-02-05T01:56:24.799Z,101126.63
2023-02-05T01:59:02.547Z,101129.09
2023-02-05T02:01:30.887Z,101127.64
2023-02-05T02:04:04.715Z,101127.16
2023-02-05T02:06:34.996Z,101126.88
2023-02-05T02:09:06.333Z,101125.81
2023-02-05T02:11:41.172Z,101128.58
2023-02-05T02:14:10.107Z,101130.16
2023-02-05T02:16:39.157Z,101129.27
2023-02-05T02:19:17.424Z,101126.36
2023-02-05T02:21:59.855Z,101129.31
2023-02-05T02:24:43.313Z,101133.88
2023-02-05T02:27:17.387Z,101125.02
2023-02-05T02:30:34.735Z,101127.63
2023-02-05T02:33:19.185Z,101124.20
2023-02-05T02:35:58.809Z,101124.09
2023-02-05T02:38:35.336Z,101116.13
2023-02-05T02:41:27.387Z,101122.38
2023-02-05T02:44:04.862Z,101116.71
2023-02-05T02:46:48.895Z,101121.07
2023-02-05T02:49:28.239Z,101122.30
2023-02-05T02:51:59.586Z,101122.72
2023-02-05T02:54:28.636Z,101123.27
2023-02-05T02:56:58.167Z,101120.46
2023-02-05T02:59:29.706Z,101122.55
2023-02-05T03:02:02.453Z,101124.74
2023-02-05T03:04:37.223Z,101123.11
2023-02-05T03:07:26.578Z,101116.80
2023-02-05T03:10:03.675Z,101118.17
2023-02-05T03:12:31.984Z,101122.33
2023-02-05T03:14:59.950Z,101125.25
2023-02-05T03:17:29.186Z,101124.83
2023-02-05T03:20:03.521Z,101118.16
2023-02-05T03:22:31.409Z,101119.10
2023-02-05T03:25:00.882Z,101124.11
2023-02-05T03:27:29.437Z,101124.05
2023-02-05T03:29:58.211Z,101125.23
2023-02-05T03:32:50.586Z,101128.63
2023-02-05T03:35:46.150Z,101124.43
2023-02-05T03:39:02.316Z,101121.85
2023-02-05T03:41:56.291Z,101123.95
2023-02-05T03:44:52.874Z,101129.21
2023-02-05T03:47:30.270Z,101125.42
2023-02-05T03:50:05.291Z,101123.99
2023-02-05T03:52:37.657Z,101123.67
2023-02-05T03:55:13.227Z,101125.02
2023-02-05T03:57:52.637Z,101130.46
2023-02-05T04:00:20.919Z,101129.46
2023-02-05T04:02:48.867Z,101125.41
2023-02-05T04:05:22.947Z,101124.84
2023-02-05T04:07:52.016Z,101124.96
2023-02-05T04:10:20.747Z,101125.42
2023-02-05T04:12:48.776Z,101123.41
2023-02-05T04:15:17.158Z,101129.79
2023-02-05T04:17:47.456Z,101130.16
2023-02-05T04:20:15.293Z,101133.44
2023-02-05T04:22:43.345Z,101132.09
2023-02-05T04:25:11.251Z,101129.89
2023-02-05T04:27:39.638Z,101126.59
2023-02-05T04:30:08.119Z,101130.70
2023-02-05T04:32:38.140Z,101133.29
2023-02-05T04:35:06.388Z,101137.25
2023-02-05T04:37:34.352Z,101141.48
2023-02-05T04:40:02.211Z,101141.05
2023-02-05T04:42:30.035Z,101135.80
2023-02-05T04:44:57.929Z,101140.38
2023-02-05T04:47:25.832Z,101145.91
2023-02-05T04:49:53.617Z,101146.92
2023-02-05T04:52:21.427Z,101145.83
2023-02-05T04:54:49.381Z,101151.55
2023-02-05T04:57:17.212Z,101159.02
2023-02-05T04:59:45.022Z,101161.46
2023-02-05T05:02:12.854Z,101163.09
2023-02-05T05:04:43.051Z,101164.13
2023-02-05T05:07:11.021Z,101164.80
2023-02-05T05:09:39.272Z,101163.11
2023-02-05T05:12:07.101Z,101164.80
2023-02-05T05:14:34.963Z,101173.05
2023-02-05T05:17:02.820Z,101172.45
2023-02-05T05:19:30.645Z,101177.34
2023-02-05T05:21:58.942Z,101180.16
2023-02-05T05:24:26.735Z,101181.84
2023-02-05T05:26:54.562Z,101184.88
2023-02-05T05:29:22.554Z,101191.27
2023-02-05T05:31:53.127Z,101194.54
2023-02-05T05:34:21.196Z,101194.97
2023-02-05T05:36:49.092Z,101196.95
2023-02-05T05:39:35.523Z,101199.46
2023-02-05T05:42:23.035Z,101205.20
2023-02-05T05:44:52.431Z,101214.98
2023-02-05T05:47:20.538Z,101222.18
2023-02-05T05:49:48.439Z,101222.38
2023-02-05T05:52:16.274Z,101226.97
2023-02-05T05:54:44.390Z,101228.95
2023-02-05T05:57:12.310Z,101230.46
2023-02-05T08:54:20.623Z,101266.41
2023-02-05T08:56:50.754Z,101271.58
2023-02-05T08:59:19.779Z,101271.50
2023-02-05T09:01:48.604Z,101271.67
2023-02-05T09:04:19.509Z,101270.84
2023-02-05T09:06:48.265Z,101267.65
2023-02-05T09:09:16.270Z,101264.48
2023-02-05T09:11:46.781Z,101266.84
2023-02-05T09:14:15.300Z,101269.50
2023-02-05T09:16:43.529Z,101272.86
2023-02-05T09:19:11.589Z,101279.48
2023-02-05T09:21:41.368Z,101278.46
2023-02-05T09:24:09.666Z,101280.13
2023-02-05T09:26:37.724Z,101279.22
2023-02-05T09:29:05.749Z,101276.61
2023-02-05T09:31:33.790Z,101272.70
2023-02-05T09:34:03.481Z,101275.78
2023-02-05T09:36:31.543Z,101278.12
2023-02-05T09:39:12.930Z,101277.40
2023-02-05T09:42:10.956Z,101276.02
2023-02-05T09:44:58.839Z,101269.55
2023-02-05T09:47:33.251Z,101260.34
2023-02-05T09:50:04.307Z,101261.67
2023-02-05T09:52:42.480Z,101265.11
2023-02-05T09:55:27.626Z,101258.77
2023-02-05T09:58:03.446Z,101250.94
2023-02-05T10:00:46.966Z,101252.85
2023-02-05T10:03:34.185Z,101245.41
2023-02-05T10:06:46.787Z,101237.91
2023-02-05T10:09:45.418Z,101235.49
2023-02-05T10:12:33.045Z,101233.73
2023-02-05T10:15:15.835Z,101240.85
2023-02-05T10:18:08.488Z,101243.98
2023-02-05T10:20:58.377Z,101245.20
2023-02-05T10:23:52.543Z,101240.43
2023-02-05T10:26:22.011Z,101234.69
2023-02-05T10:29:05.105Z,101231.41
2023-02-05T10:31:54.393Z,101220.55
2023-02-05T10:34:50.536Z,101216.98
2023-02-05T10:37:21.250Z,101213.71
2023-02-05T10:39:49.789Z,101215.02
2023-02-05T10:42:41.824Z,101220.27
2023-02-05T10:45:12.667Z,101219.78
2023-02-05T10:47:45.418Z,101214.19
2023-02-05T10:50:47.337Z,101215.64
2023-02-05T10:53:19.402Z,101216.36
2023-02-05T10:55:47.486Z,101215.27
2023-02-05T10:58:21.329Z,101219.10
2023-02-05T11:00:49.966Z,101220.48
2023-02-05T11:03:19.705Z,101218.02
2023-02-05T11:05:49.199Z,101216.13
2023-02-05T11:08:38.594Z,101211.75
2023-02-05T11:11:08.622Z,101207.01
2023-02-05T11:13:41.886Z,101209.97
2023-02-05T11:16:10.941Z,101214.27
2023-02-05T11:18:43.064Z,101214.77
2023-02-05T11:21:12.007Z,101205.77
2023-02-05T11:23:41.052Z,101202.98
2023-02-05T11:26:21.001Z,101206.28
2023-02-05T11:28:49.045Z,101202.92
2023-02-05T11:31:28.896Z,101203.36
2023-02-05T11:34:23.270Z,101200.69
2023-02-05T11:36:54.719Z,101206.61
2023-02-05T11:39:36.844Z,101209.33
2023-02-05T11:42:11.638Z,101211.68
2023-02-05T11:44:53.563Z,101208.84
2023-02-05T11:47:30.696Z,101204.33
2023-02-05T11:49:59.360Z,101203.61
2023-02-05T11:52:36.525Z,101201.17
2023-02-05T11:55:06.588Z,101197.93
2023-02-05T11:57:39.022Z,101194.95
2023-02-05T12:00:12.663Z,101191.39
2023-02-05T12:02:41.656Z,101187.76
2023-02-05T12:05:17.650Z,101189.56
2023-02-05T12:08:09.261Z,101193.30
2023-02-05T12:10:47.930Z,101187.34
2023-02-05T12:13:49.656Z,101184.46
2023-02-05T12:16:23.738Z,101187.95
2023-02-05T12:18:57.589Z,101184.05
2023-02-05T12:21:48.531Z,101187.82
2023-02-05T12:24:25.368Z,101187.55
2023-02-05T12:27:04.504Z,101177.66
2023-02-05T12:29:48.596Z,101175.33
2023-02-05T12:32:42.819Z,101173.60
2023-02-05T12:35:10.665Z,101172.58
2023-02-05T12:38:27.285Z,101178.23
2023-02-05T12:41:05.859Z,101178.63
2023-02-05T12:43:42.652Z,101175.31
2023-02-05T12:46:13.907Z,101177.43
2023-02-05T12:49:06.507Z,101179.14
2023-02-05T12:52:03.813Z,101181.68
2023-02-05T12:54:53.208Z,101184.35
2023-02-05T12:57:29.263Z,101186.02
2023-02-05T13:00:06.686Z,101183.73
2023-02-05T13:02:38.812Z,101186.86
2023-02-05T13:05:13.312Z,101184.11
2023-02-05T13:07:50.002Z,101180.61
2023-02-05T13:10:20.511Z,101177.36
2023-02-05T13:12:58.452Z,101181.44
2023-02-05T13:15:36.884Z,101178.13
2023-02-05T13:18:16.951Z,101182.06
2023-02-05T13:21:08.408Z,101185.09
2023-02-05T13:23:56.856Z,101188.45
2023-02-05T13:26:53.051Z,101189.38
2023-02-05T13:29:23.388Z,101186.14
2023-02-05T13:31:57.083Z,101190.34
2023-02-05T13:34:26.742Z,101187.33
2023-02-05T13:37:13.821Z,101185.10
2023-02-05T13:39:56.698Z,101183.71
2023-02-05T13:42:30.574Z,101178.33
2023-02-05T13:45:17.890Z,101176.85
2023-02-05T13:47:57.968Z,101173.52
2023-02-05T13:50:55.043Z,101175.95
2023-02-05T13:53:42.370Z,101175.52
2023-02-05T13:56:26.159Z,101170.50
2023-02-05T13:59:23.768Z,101170.73
2023-02-05T14:02:01.269Z,101169.80
2023-02-05T14:04:53.964Z,101168.04
2023-02-05T14:07:27.661Z,101172.98
2023-02-05T14:10:00.689Z,101173.59
2023-02-05T14:12:32.419Z,101174.90
2023-02-05T14:15:15.540Z,101176.29
2023-02-05T14:17:43.290Z,101171.44
2023-02-05T14:20:26.339Z,101163.45
2023-02-05T14:23:02.873Z,101164.13
2023-02-05T14:25:41.642Z,101164.94
2023-02-05T14:28:15.641Z,101172.60
2023-02-05T14:31:03.929Z,101173.49
2023-02-05T14:33:42.495Z,101173.75
2023-02-05T14:36:16.968Z,101179.14
2023-02-05T14:38:51.334Z,101180.97
2023-02-05T14:41:23.433Z,101180.58
2023-02-05T14:44:07.022Z,101178.77
2023-02-05T14:46:41.877Z,101178.67
2023-02-05T14:49:28.572Z,101180.52
2023-02-05T14:52:00.493Z,101176.02
2023-02-05T14:54:45.053Z,101180.83
2023-02-05T14:57:19.271Z,101175.63
2023-02-05T15:00:01.879Z,101178.35
2023-02-05T15:02:51.886Z,101184.85
2023-02-05T15:05:33.218Z,101190.83
2023-02-05T15:08:11.019Z,101195.02
2023-02-05T15:11:12.270Z,101201.60
2023-02-05T15:13:40.532Z,101203.63
2023-02-05T15:16:08.435Z,101200.64
2023-02-05T15:18:44.811Z,101200.44
2023-02-05T15:21:32.470Z,101200.67
2023-02-05T15:24:13.741Z,101203.42
2023-02-05T15:27:03.891Z,101206.88
2023-02-05T15:29:43.704Z,101197.52
2023-02-05T15:32:17.879Z,101196.19
2023-02-05T15:34:53.733Z,101203.77
2023-02-05T15:37:23.524Z,101210.80
2023-02-05T15:39:53.890Z,101206.27
2023-02-05T15:42:40.507Z,101207.33
2023-02-05T15:45:28.637Z,101205.23
2023-02-05T15:48:11.873Z,101209.48
2023-02-05T15:50:54.884Z,101217.13
2023-02-05T15:53:38.888Z,101222.77
2023-02-05T15:56:21.221Z,101221.06
2023-02-05T15:58:52.665Z,101222.28
2023-02-05T16:01:26.606Z,101227.14
2023-02-05T16:03:54.618Z,101224.79
2023-02-05T16:06:24.638Z,101222.52
2023-02-05T16:08:53.703Z,101224.09
2023-02-05T16:11:30.560Z,101227.24
2023-02-05T16:14:13.717Z,101227.14
2023-02-05T16:17:06.133Z,101226.01
2023-02-05T16:19:45.067Z,101225.17
2023-02-05T16:22:26.338Z,101226.77
2023-02-05T16:24:58.859Z,101228.80
2023-02-05T16:27:40.840Z,101234.66
2023-02-05T16:30:18.068Z,101239.83
2023-02-05T16:32:48.191Z,101236.16
2023-02-05T16:35:40.531Z,101236.36
2023-02-05T16:38:16.894Z,101240.83
2023-02-05T16:40:48.732Z,101249.13
2023-02-05T16:43:39.190Z,101254.16
2023-02-05T16:46:07.158Z,101248.98
2023-02-05T16:48:47.129Z,101249.04
2023-02-05T16:51:38.648Z,101250.29
2023-02-05T16:54:26.713Z,101254.27
2023-02-05T16:56:56.378Z,101249.52
2023-02-05T16:59:29.430Z,101248.25
2023-02-05T17:01:59.553Z,101249.41
2023-02-05T17:04:32.113Z,101252.41
2023-02-05T17:07:01.605Z,101251.43
2023-02-05T17:09:32.479Z,101252.67
2023-02-05T17:12:22.318Z,101251.94
2023-02-05T17:14:59.077Z,101250.70
2023-02-05T17:17:28.761Z,101248.92
2023-02-05T17:20:11.778Z,101251.64
2023-02-05T17:22:39.726Z,101253.80
2023-02-05T17:25:07.893Z,101253.00
2023-02-05T17:27:39.795Z,101251.16
2023-02-05T17:30:15.638Z,101249.80
2023-02-05T17:32:44.548Z,101244.46
2023-02-05T17:35:17.311Z,101236.55
2023-02-05T17:37:45.347Z,101231.25
2023-02-05T17:40:14.421Z,101241.16
2023-02-05T17:42:43.747Z,101241.90
2023-02-05T17:45:26.227Z,101236.80
2023-02-05T17:47:54.169Z,101233.41
2023-02-05T17:50:22.768Z,101225.69
2023-02-05T17:52:52.225Z,101219.35
2023-02-05T17:55:21.768Z,101221.87
2023-02-05T17:57:49.845Z,101216.64
2023-02-05T18:00:23.975Z,101211.40
2023-02-05T18:02:52.413Z,101212.55
2023-02-05T18:05:20.961Z,101212.15
2023-02-05T18:07:54.973Z,101219.67
2023-02-05T18:10:28.485Z,101229.08
2023-02-05T18:12:56.744Z,101231.73
2023-02-05T18:15:25.762Z,101229.26
2023-02-05T18:17:53.706Z,101235.74
2023-02-05T18:20:22.096Z,101235.48
2023-02-05T18:22:50.017Z,101233.71
2023-02-05T18:25:18.018Z,101224.41
2023-02-05T18:27:46.804Z,101224.86
2023-02-05T18:30:14.909Z,101227.61
2023-02-05T18:32:42.900Z,101225.70
2023-02-05T18:35:14.379Z,101224.29
2023-02-05T18:37:43.808Z,101221.55
2023-02-05T18:40:13.639Z,101216.21
2023-02-05T18:42:42.000Z,101220.17
2023-02-05T18:45:10.071Z,101225.30
2023-02-05T18:47:38.044Z,101222.30
2023-02-05T18:50:07.890Z,101221.23
2023-02-05T18:52:36.887Z,101222.59
2023-02-05T18:55:05.597Z,101223.30
2023-02-05T18:57:33.501Z,101223.48
2023-02-05T19:00:01.473Z,101216.35
2023-02-05T19:02:29.800Z,101211.15
2023-02-05T19:04:57.747Z,101204.77
2023-02-05T19:07:26.038Z,101209.09
2023-02-05T19:09:56.151Z,101212.15
2023-02-05T19:12:24.169Z,101214.38
2023-02-05T19:14:53.258Z,101215.52
2023-02-05T19:17:21.288Z,101221.85
2023-02-05T19:19:49.878Z,101218.55
2023-02-05T19:22:17.893Z,101223.17
2023-02-05T19:24:46.239Z,101233.86
2023-02-05T19:27:14.472Z,101240.83
2023-02-05T19:29:42.674Z,101246.45
2023-02-05T19:32:11.071Z,101248.32
2023-02-05T19:34:40.635Z,101256.41
2023-02-05T19:37:11.857Z,101261.53
2023-02-05T19:39:40.180Z,101261.61
2023-02-05T19:42:10.208Z,101270.62
2023-02-05T19:44:38.149Z,101274.82
2023-02-05T19:47:06.108Z,101273.58
2023-02-05T19:49:34.316Z,101271.50
2023-02-05T19:52:02.287Z,101280.08
2023-02-05T19:54:30.446Z,101283.33
2023-02-05T19:56:58.464Z,101285.52
2023-02-05T19:59:26.591Z,101289.80
2023-02-05T20:01:54.947Z,101298.36
2023-02-05T20:04:25.695Z,101308.14
2023-02-05T20:06:58.343Z,101314.91
2023-02-05T20:09:27.707Z,101315.20
2023-02-05T20:11:55.764Z,101318.72
2023-02-05T20:14:24.249Z,101319.19
2023-02-05T20:16:52.770Z,101321.23
2023-02-05T20:19:20.994Z,101330.54
2023-02-05T20:21:49.354Z,101331.21
2023-02-05T20:24:17.418Z,101329.44
2023-02-05T20:26:49.904Z,101327.21
2023-02-05T20:29:36.386Z,101333.41
2023-02-05T20:32:04.656Z,101333.88
2023-02-05T20:34:35.514Z,101333.66
2023-02-05T20:37:06.963Z,101334.17
2023-02-05T20:39:38.625Z,101336.23
2023-02-05T20:42:06.820Z,101339.46
2023-02-05T20:44:36.286Z,101336.99
2023-02-05T20:47:07.287Z,101339.19
2023-02-05T20:49:36.780Z,101346.21
2023-02-05T20:52:04.910Z,101354.60
2023-02-05T20:54:32.830Z,101355.59
2023-02-05T20:57:00.794Z,101348.60
2023-02-05T20:59:32.526Z,101343.85
2023-02-05T21:02:00.932Z,101340.92
2023-02-05T21:04:28.993Z,101342.06
2023-02-05T21:06:58.342Z,101343.36
2023-02-05T21:09:26.164Z,101350.77
2023-02-05T21:11:56.744Z,101356.75
2023-02-05T21:14:24.800Z,101359.61
2023-02-05T21:16:53.290Z,101359.20
2023-02-05T21:19:21.312Z,101354.69
2023-02-05T21:21:50.015Z,101354.13
2023-02-05T21:24:18.933Z,101355.48
2023-02-05T21:26:49.361Z,101352.11
2023-02-05T21:29:20.036Z,101350.86
2023-02-05T21:31:52.861Z,101345.20
2023-02-05T21:34:24.955Z,101341.96
2023-02-05T21:36:55.063Z,101351.78
2023-02-05T21:39:23.615Z,101359.48
2023-02-05T21:41:51.599Z,101363.67
2023-02-05T21:44:19.426Z,101366.92
2023-02-05T21:46:47.297Z,101374.61
2023-02-05T21:49:15.313Z,101372.11
2023-02-05T21:51:43.441Z,101374.48
2023-02-05T21:54:11.766Z,101382.27
2023-02-05T21:56:43.466Z,101396.64
2023-02-05T21:59:12.776Z,101396.23
2023-02-05T22:01:41.609Z,101385.83
2023-02-05T22:04:15.321Z,101381.08
2023-02-05T22:06:44.112Z,101394.24
2023-02-05T22:09:15.204Z,101405.52
2023-02-05T22:11:44.082Z,101406.41
2023-02-05T22:14:12.112Z,101398.74
2023-02-05T22:16:40.075Z,101402.11
2023-02-05T22:19:08.413Z,101404.75
2023-02-05T22:21:40.211Z,101407.40
2023-02-05T22:24:12.798Z,101413.32
2023-02-05T22:26:41.569Z,101424.40
2023-02-05T22:29:13.747Z,101431.56
2023-02-05T22:31:42.610Z,101438.52
2023-02-05T22:34:11.125Z,101435.02
2023-02-05T22:36:39.059Z,101429.41
2023-02-05T22:39:07.299Z,101430.92
2023-02-05T22:41:38.169Z,101432.29
2023-02-05T22:44:07.632Z,101425.88
2023-02-05T22:46:42.430Z,101423.74
2023-02-05T22:49:11.971Z,101416.16
2023-02-05T22:51:40.974Z,101406.54
2023-02-05T22:54:11.753Z,101400.80
2023-02-05T22:56:39.668Z,101413.50
2023-02-05T22:59:08.012Z,101418.85
2023-02-05T23:01:38.319Z,101416.35
2023-02-05T23:04:08.092Z,101420.36
2023-02-05T23:06:38.949Z,101426.76
2023-02-05T23:09:10.075Z,101427.54
2023-02-05T23:11:38.441Z,101429.40
2023-02-05T23:14:07.726Z,101433.48
2023-02-05T23:16:39.560Z,101428.66
2023-02-05T23:19:11.456Z,101424.02
2023-02-05T23:21:41.774Z,101424.34
2023-02-05T23:24:10.339Z,101412.99
2023-02-05T23:26:42.565Z,101402.24
2023-02-05T23:29:13.083Z,101406.08
2023-02-05T23:31:41.892Z,101410.80
2023-02-05T23:34:10.258Z,101406.38
2023-02-05T23:36:38.526Z,101397.34
2023-02-05T23:39:06.578Z,101392.00
2023-02-05T23:41:37.723Z,101382.05
2023-02-05T23:44:19.559Z,101377.69
2023-02-05T23:46:49.943Z,101378.02
2023-02-05T23:49:23.132Z,101377.34
2023-02-05T23:51:53.915Z,101373.66
2023-02-05T23:54:23.801Z,101366.48
2023-02-05T23:56:52.557Z,101367.55
2023-02-05T23:59:20.569Z,101360.38
